Botsford, CT (06404)

2:04 PM EDT on August 21, 2014 (GMT -0400)
Great Quarter Rd | Change Station
CLOSE
Current Station
Personal Weather Station
Location: Newtown, CT
Elevation: 299 ft
Nearby Weather Stations

Elev 299 ft 41.39 °N, 73.19 °W | Updated 18 seconds ago

Mostly Cloudy
Mostly Cloudy
74.1 °F
Feels Like 75 °F
N
0.0
Wind Variable Wind from SE
Gusts 0.0 mph

Today
High -- | Low -- °F
--% Chance of Precip.
Yesterday
High -- | Low -- °F
Precip. -- in
6:07 AM 7:43 PM
Waning Crescent, 13% visible
Pressure 30.09 in
Visibility 10.0 miles
Clouds Scattered Clouds 2800 ft
Mostly Cloudy 4400 ft
Heat Index 75 °F
Dew Point 66 °F
Humidity 76%
Rainfall 0.00 in
Snow Depth Not available.
UV 5 out of 12
Pollen 8.00 out of 12
Air Quality Not available.
Flu Activity Not available.
METAR KOXC 211752Z 19009KT 10SM SCT028 BKN044 24/16 A3009

More Conditions Fewer Conditions

Pressure 30.09 in
Visibility 10.0 miles
Clouds Scattered Clouds 2800 ft
Mostly Cloudy 4400 ft
Heat Index 75 °F
Dew Point 66 °F
Humidity 76%
Rainfall 0.00 in
Snow Depth Not available.
UV 5 out of 12
Pollen 8.00 out of 12
Air Quality Not available.
Flu Activity Not available.
METAR KOXC 211752Z 19009KT 10SM SCT028 BKN044 24/16 A3009

More Conditions Fewer Conditions

10-Day Weather Forecast

Almanac

Astronomy

Aug. 21, 2014 Rise Set
Actual Time 6:07 AM EDT 7:43 PM EDT
Civil Twilight 5:38 AM EDT 8:12 PM EDT
Nautical Twilight 5:03 AM EDT 8:47 PM EDT
Astronomical Twilight 4:25 AM EDT 9:24 PM EDT
Moon 2:34 AM EDT 5:11 PM EDT
Length of Visible Light 14h 33m
Length of Day
13h 35m
Tomorrow will be 2m 33s shorter.
Waning Crescent, 13% of the Moon is Illuminated
Today
Waning Crescent
Aug 25
New
Sep 2
First Quarter
Sep 8
Full
Sep 15
Last Quarter

Today's Extremes

State Highs State Lows

Community

WunderPhotos

Upload Photos

1,745,987 photos uploaded!

WunderBlogs® & News

Nearby

Air Quality

  Air Quality AQ Index Pollutant
Yesterday Moderate
OZONE
Yesterday Good
PM2.5
Thursday Moderate
PM2.5
Thursday Good
OZONE
Friday Good
PM2.5
Friday Good
OZONE

Snow Depth

Station Depth Elevation
No new snow has been reported.

Earthquake Activity

City Distance Mag. Time & Date
No recent earthquake activity has been reported nearby.
Minimum magnitude displayed is 2.5.

Coastal Water Temperatures

Place Temperature
Kings Point, NY 73.9 °F
Bridgeport, CT 73.9 °F

Nearby Weather Stations